createdAt,value
2018-09-25T00:00:02.203Z,11.12
2018-09-25T00:04:11.196Z,11.09
2018-09-25T00:08:20.368Z,11.06
2018-09-25T00:12:29.412Z,11.06
2018-09-25T00:16:39.285Z,11.04
2018-09-25T00:20:48.878Z,11.03
2018-09-25T00:24:58.642Z,10.99
2018-09-25T00:29:07.722Z,11.00
2018-09-25T00:33:16.744Z,10.95
2018-09-25T00:37:25.854Z,10.93
2018-09-25T00:41:34.846Z,10.90
2018-09-25T00:45:43.850Z,10.87
2018-09-25T00:49:52.577Z,10.85
2018-09-25T00:54:01.589Z,10.80
2018-09-25T00:58:10.538Z,10.75
2018-09-25T01:02:19.916Z,10.72
2018-09-25T01:06:28.824Z,10.68
2018-09-25T01:10:37.821Z,10.65
2018-09-25T01:14:46.720Z,10.63
2018-09-25T01:18:55.681Z,10.62
2018-09-25T01:23:04.879Z,10.59
2018-09-25T01:27:14.074Z,10.59
2018-09-25T01:31:23.041Z,10.57
2018-09-25T01:35:31.952Z,10.53
2018-09-25T01:39:40.822Z,10.53
2018-09-25T01:43:49.883Z,10.45
2018-09-25T01:47:58.542Z,10.41
2018-09-25T01:52:07.289Z,10.38
2018-09-25T01:56:16.064Z,10.40
2018-09-25T02:00:24.845Z,10.37
2018-09-25T02:04:33.588Z,10.33
2018-09-25T02:08:42.394Z,10.31
2018-09-25T02:12:51.193Z,10.29
2018-09-25T02:16:59.947Z,10.25
2018-09-25T02:21:08.892Z,10.23
2018-09-25T02:25:17.619Z,10.23
2018-09-25T02:29:26.343Z,10.23
2018-09-25T02:33:35.064Z,10.26
2018-09-25T02:37:43.601Z,10.24
2018-09-25T02:41:52.224Z,10.20
2018-09-25T02:46:00.912Z,10.20
2018-09-25T02:50:09.515Z,10.17
2018-09-25T02:54:18.144Z,10.15
2018-09-25T02:58:26.607Z,10.14
2018-09-25T03:02:35.323Z,10.14
2018-09-25T03:06:44.345Z,10.10
2018-09-25T03:10:53.348Z,10.09
2018-09-25T03:15:02.476Z,10.07
2018-09-25T03:19:12.054Z,10.04
2018-09-25T03:23:21.029Z,10.03
2018-09-25T03:27:30.002Z,9.98
2018-09-25T03:31:39.337Z,9.94
2018-09-25T03:35:48.641Z,9.88
2018-09-25T03:39:57.712Z,9.86
2018-09-25T03:44:06.758Z,9.81
2018-09-25T03:48:15.573Z,9.79
2018-09-25T03:52:24.535Z,9.80
2018-09-25T03:56:33.457Z,9.78
2018-09-25T04:00:42.439Z,9.76
2018-09-25T04:04:51.501Z,9.71
2018-09-25T04:09:00.368Z,9.70
2018-09-25T04:13:09.341Z,9.64
2018-09-25T04:17:18.337Z,9.66
2018-09-25T04:21:28.237Z,9.62
2018-09-25T04:25:37.058Z,9.58
2018-09-25T04:29:46.643Z,9.56
2018-09-25T04:33:56.959Z,9.52
2018-09-25T04:38:05.918Z,9.49
2018-09-25T04:42:15.040Z,9.46
2018-09-25T04:46:28.930Z,9.40
2018-09-25T04:50:39.101Z,9.33
2018-09-25T04:54:48.636Z,9.30
2018-09-25T04:58:58.371Z,9.29
2018-09-25T05:03:07.813Z,9.30
2018-09-25T05:07:17.555Z,9.38
2018-09-25T05:11:26.900Z,9.38
2018-09-25T05:15:36.512Z,9.36
2018-09-25T05:19:46.605Z,9.34
2018-09-25T05:23:55.930Z,9.28
2018-09-25T05:28:04.784Z,9.28
2018-09-25T05:32:14.022Z,9.27
2018-09-25T05:36:23.334Z,9.28
2018-09-25T05:40:32.637Z,9.28
2018-09-25T05:44:42.028Z,9.28
2018-09-25T05:48:51.228Z,9.24
2018-09-25T05:53:00.409Z,9.27
2018-09-25T05:57:09.435Z,9.31
2018-09-25T06:01:18.631Z,9.33
2018-09-25T06:05:27.887Z,9.34
2018-09-25T06:09:37.250Z,9.34
2018-09-25T06:13:47.227Z,9.38
2018-09-25T06:17:56.555Z,9.42
2018-09-25T06:22:10.634Z,9.48
2018-09-25T06:26:19.946Z,9.55
2018-09-25T06:30:29.691Z,9.59
2018-09-25T06:34:39.059Z,9.65
2018-09-25T06:38:48.150Z,9.71
2018-09-25T06:43:02.177Z,9.76
2018-09-25T06:47:11.483Z,9.80
2018-09-25T06:51:21.130Z,9.87
2018-09-25T06:55:30.199Z,9.97
2018-09-25T06:59:39.312Z,10.03
2018-09-25T07:03:48.469Z,10.11
2018-09-25T07:07:58.223Z,10.15
2018-09-25T07:12:07.518Z,10.25
2018-09-25T07:16:16.874Z,10.31
2018-09-25T07:20:26.230Z,10.40
2018-09-25T07:24:36.276Z,10.53
2018-09-25T07:28:45.318Z,10.59
2018-09-25T07:32:54.666Z,10.70
2018-09-25T07:37:04.251Z,10.80
2018-09-25T07:41:13.730Z,10.87
2018-09-25T07:45:23.071Z,10.90
2018-09-25T07:49:32.084Z,10.91
2018-09-25T07:53:50.568Z,10.87
2018-09-25T07:58:01.803Z,10.81
2018-09-25T08:02:10.994Z,10.90
2018-09-25T08:06:20.698Z,10.90
2018-09-25T08:10:29.925Z,10.91
2018-09-25T08:14:39.739Z,10.95
2018-09-25T08:18:49.119Z,10.98
2018-09-25T08:22:58.179Z,11.08
2018-09-25T08:27:08.104Z,11.19
2018-09-25T08:31:17.641Z,11.31
2018-09-25T08:35:26.862Z,11.46
2018-09-25T08:39:41.912Z,11.42
2018-09-25T08:43:53.025Z,11.45
2018-09-25T08:48:04.484Z,11.45
2018-09-25T08:52:21.352Z,11.51
2018-09-25T08:56:30.997Z,11.64
2018-09-25T09:00:40.331Z,11.88
2018-09-25T09:04:49.631Z,11.97
2018-09-25T09:08:59.000Z,11.86
2018-09-25T09:13:08.819Z,11.85
2018-09-25T09:17:18.684Z,11.92
2018-09-25T09:21:27.470Z,12.04
2018-09-25T09:25:36.232Z,12.17
2018-09-25T09:29:44.967Z,12.28
2018-09-25T09:33:53.728Z,12.34
2018-09-25T09:38:02.503Z,12.45
2018-09-25T09:42:11.331Z,12.66
2018-09-25T09:46:20.043Z,12.81
2018-09-25T09:50:28.795Z,12.83
2018-09-25T09:54:37.530Z,12.73
2018-09-25T09:58:46.162Z,12.87
2018-09-25T10:02:55.218Z,12.99
2018-09-25T10:07:03.730Z,13.07
2018-09-25T10:11:12.463Z,12.95
2018-09-25T10:15:21.346Z,12.80
2018-09-25T10:19:30.237Z,12.86
2018-09-25T10:23:38.960Z,12.87
2018-09-25T10:27:47.713Z,12.98
2018-09-25T10:31:56.447Z,13.07
2018-09-25T10:36:05.012Z,13.02
2018-09-25T10:40:13.698Z,12.86
2018-09-25T10:44:22.478Z,12.85
2018-09-25T10:48:31.328Z,12.81
2018-09-25T10:52:40.099Z,12.78
2018-09-25T10:56:52.132Z,12.72
2018-09-25T11:01:06.148Z,12.72
2018-09-25T11:05:30.634Z,12.93
2018-09-25T11:09:39.591Z,12.91
2018-09-25T11:13:48.683Z,12.87
2018-09-25T11:17:59.861Z,12.86
2018-09-25T11:22:11.042Z,12.92
2018-09-25T11:26:20.353Z,13.04
2018-09-25T11:30:30.187Z,13.14
2018-09-25T11:34:42.922Z,13.13
2018-09-25T11:38:52.744Z,13.07
2018-09-25T11:43:02.364Z,13.03
2018-09-25T11:47:12.376Z,12.96
2018-09-25T11:51:24.080Z,13.02
2018-09-25T11:55:38.907Z,13.17
2018-09-25T11:59:49.065Z,13.30
2018-09-25T12:04:02.982Z,13.55
2018-09-25T12:08:15.504Z,13.69
2018-09-25T12:12:27.813Z,13.80
2018-09-25T12:16:37.456Z,13.87
2018-09-25T12:20:48.145Z,13.87
2018-09-25T12:24:58.851Z,13.59
2018-09-25T12:29:08.396Z,13.54
2018-09-25T12:33:19.049Z,13.57
2018-09-25T12:37:30.577Z,13.70
2018-09-25T12:41:39.799Z,13.82
2018-09-25T12:45:50.147Z,13.82
2018-09-25T12:50:00.904Z,13.71
2018-09-25T12:54:14.644Z,13.66
2018-09-25T12:58:25.624Z,13.66
2018-09-25T13:02:41.155Z,13.55
2018-09-25T13:06:58.390Z,13.54
2018-09-25T13:11:11.857Z,13.64
2018-09-25T13:15:23.663Z,13.71
2018-09-25T13:19:35.542Z,13.64
2018-09-25T13:23:46.494Z,13.52
2018-09-25T13:27:56.944Z,13.44
2018-09-25T13:32:10.248Z,13.43
2018-09-25T13:36:23.682Z,13.37
2018-09-25T13:40:32.924Z,13.36
2018-09-25T13:44:48.097Z,13.39
2018-09-25T13:49:07.779Z,13.43
2018-09-25T13:53:21.281Z,13.43
2018-09-25T13:57:35.615Z,13.48
2018-09-25T14:01:45.324Z,13.41
2018-09-25T14:05:56.351Z,13.46
2018-09-25T14:10:05.440Z,13.50
2018-09-25T14:14:14.712Z,13.51
2018-09-25T14:18:28.345Z,13.60
2018-09-25T14:22:38.388Z,13.63
2018-09-25T14:26:52.242Z,13.63
2018-09-25T14:31:04.185Z,13.49
2018-09-25T14:35:14.905Z,13.40
2018-09-25T14:39:29.360Z,13.46
2018-09-25T14:43:38.916Z,13.53
2018-09-25T14:47:49.492Z,13.62
2018-09-25T14:51:58.613Z,13.55
2018-09-25T14:56:08.234Z,13.54
2018-09-25T15:00:16.956Z,13.56
2018-09-25T15:08:56.084Z,13.54
2018-09-25T15:13:04.939Z,13.56
2018-09-25T15:17:13.643Z,13.59
2018-09-25T15:21:22.662Z,13.50
2018-09-25T15:25:31.197Z,13.47
2018-09-25T15:29:39.954Z,13.43
2018-09-25T15:33:48.764Z,13.41
2018-09-25T15:37:57.437Z,13.43
2018-09-25T15:42:06.314Z,13.37
2018-09-25T15:46:15.281Z,13.40
2018-09-25T15:50:23.885Z,13.37
2018-09-25T15:54:32.547Z,13.29
2018-09-25T15:58:42.292Z,13.26
2018-09-25T16:02:51.219Z,13.23
2018-09-25T16:06:59.979Z,13.22
2018-09-25T16:11:08.834Z,13.14
2018-09-25T16:15:17.510Z,13.11
2018-09-25T16:19:26.226Z,13.10
2018-09-25T16:23:35.855Z,13.13
2018-09-25T16:27:44.417Z,13.15
2018-09-25T16:31:53.280Z,13.13
2018-09-25T16:36:02.289Z,13.09
2018-09-25T16:40:11.101Z,13.05
2018-09-25T16:44:19.754Z,12.98
2018-09-25T16:48:28.504Z,12.97
2018-09-25T16:52:37.269Z,12.99
2018-09-25T16:56:46.125Z,12.99
2018-09-25T17:00:54.932Z,12.96
2018-09-25T17:05:03.796Z,12.93
2018-09-25T17:09:12.966Z,12.88
2018-09-25T17:13:21.829Z,12.86
2018-09-25T17:17:30.621Z,12.83
2018-09-25T17:21:39.470Z,12.74
2018-09-25T17:25:48.395Z,12.67
2018-09-25T17:29:57.143Z,12.60
2018-09-25T17:34:05.807Z,12.55
2018-09-25T17:38:17.231Z,12.47
2018-09-25T17:42:26.124Z,12.43
2018-09-25T17:46:34.732Z,12.42
2018-09-25T17:50:43.649Z,12.43
2018-09-25T17:54:52.486Z,12.39
2018-09-25T17:59:01.491Z,12.36
2018-09-25T18:03:17.903Z,12.35
2018-09-25T18:07:30.101Z,12.31
2018-09-25T18:11:44.854Z,12.28
2018-09-25T18:15:57.260Z,12.21
2018-09-25T18:20:09.304Z,12.17
2018-09-25T18:24:26.145Z,12.13
2018-09-25T18:28:39.502Z,12.05
2018-09-25T18:32:51.246Z,11.97
2018-09-25T18:37:01.943Z,11.92
2018-09-25T18:41:13.083Z,11.87
2018-09-25T18:45:25.425Z,11.84
2018-09-25T18:49:35.730Z,11.78
2018-09-25T18:53:44.416Z,11.71
2018-09-25T18:57:53.210Z,11.63
2018-09-25T19:02:01.888Z,11.61
2018-09-25T19:06:10.835Z,11.60
2018-09-25T19:10:19.500Z,11.59
2018-09-25T19:14:28.189Z,11.55
2018-09-25T19:18:37.080Z,11.48
2018-09-25T19:22:52.653Z,11.44
2018-09-25T19:27:03.045Z,11.41
2018-09-25T19:31:11.652Z,11.34
2018-09-25T19:35:20.380Z,11.27
2018-09-25T19:39:29.197Z,11.21
2018-09-25T19:43:37.955Z,11.15
2018-09-25T19:47:46.657Z,11.11
2018-09-25T19:51:55.443Z,11.07
2018-09-25T19:56:04.305Z,11.04
2018-09-25T20:00:12.891Z,11.00
2018-09-25T20:04:21.522Z,10.96
2018-09-25T20:08:30.295Z,10.92
2018-09-25T20:12:39.070Z,10.92
2018-09-25T20:16:47.868Z,10.91
2018-09-25T20:20:57.024Z,10.88
2018-09-25T20:25:07.728Z,10.84
2018-09-25T20:29:16.623Z,10.80
2018-09-25T20:33:25.053Z,10.72
2018-09-25T20:37:33.964Z,10.67
2018-09-25T20:41:42.650Z,10.64
2018-09-25T20:45:51.336Z,10.59
2018-09-25T20:50:00.068Z,10.53
2018-09-25T20:54:08.660Z,10.51
2018-09-25T20:58:17.428Z,10.48
2018-09-25T21:02:26.210Z,10.46
2018-09-25T21:06:35.242Z,10.42
2018-09-25T21:10:44.136Z,10.37
2018-09-25T21:14:53.016Z,10.32
2018-09-25T21:19:01.780Z,10.29
2018-09-25T21:23:10.510Z,10.27
2018-09-25T21:27:19.056Z,10.28
2018-09-25T21:31:27.912Z,10.26
2018-09-25T21:35:36.655Z,10.23
2018-09-25T21:39:45.691Z,10.22
2018-09-25T21:43:54.404Z,10.20
2018-09-25T21:48:03.203Z,10.17
2018-09-25T21:52:12.145Z,10.14
2018-09-25T21:56:20.819Z,10.11
2018-09-25T22:00:29.536Z,10.09
2018-09-25T22:04:38.088Z,10.07
2018-09-25T22:08:46.791Z,10.04
2018-09-25T22:12:55.272Z,10.00
2018-09-25T22:17:04.004Z,9.99
2018-09-25T22:21:12.827Z,9.94
2018-09-25T22:25:21.629Z,9.88
2018-09-25T22:29:30.373Z,9.82
2018-09-25T22:33:39.152Z,9.78
2018-09-25T22:37:47.844Z,9.71
2018-09-25T22:41:56.305Z,9.69
2018-09-25T22:46:05.130Z,9.68
2018-09-25T22:50:13.934Z,9.67
2018-09-25T22:54:22.371Z,9.61
2018-09-25T22:58:31.103Z,9.55
2018-09-25T23:02:39.806Z,9.51
2018-09-25T23:06:48.599Z,9.45
2018-09-25T23:10:57.290Z,9.39
2018-09-25T23:15:05.913Z,9.34
2018-09-25T23:19:14.643Z,9.27
2018-09-25T23:23:23.434Z,9.24
2018-09-25T23:27:32.214Z,9.22
2018-09-25T23:31:40.900Z,9.19
2018-09-25T23:35:49.641Z,9.17
2018-09-25T23:42:02.123Z,9.12
2018-09-25T23:47:16.465Z,8.97
2018-09-25T23:51:26.061Z,8.88
2018-09-25T23:57:41.172Z,8.83
